sensor_id;sensor_type;location;lat;lon;timestamp;P1;durP1;ratioP1;P2;durP2;ratioP2
23628;SDS011;11991;57.150;-2.134;2023-03-01T00:01:05;1.83;;;0.80;;
23628;SDS011;11991;57.150;-2.134;2023-03-01T00:03:34;2.40;;;1.13;;
23628;SDS011;11991;57.150;-2.134;2023-03-01T00:06:02;3.13;;;0.93;;
23628;SDS011;11991;57.150;-2.134;2023-03-01T00:08:30;4.03;;;1.10;;
23628;SDS011;11991;57.150;-2.134;2023-03-01T00:13:44;1.40;;;0.80;;
23628;SDS011;11991;57.150;-2.134;2023-03-01T00:16:19;2.00;;;0.97;;
23628;SDS011;11991;57.150;-2.134;2023-03-01T00:18:51;1.80;;;0.80;;
23628;SDS011;11991;57.150;-2.134;2023-03-01T00:21:21;3.00;;;1.00;;
23628;SDS011;11991;57.150;-2.134;2023-03-01T00:23:49;3.10;;;0.87;;
23628;SDS011;11991;57.150;-2.134;2023-03-01T00:26:17;2.07;;;0.70;;
23628;SDS011;11991;57.150;-2.134;2023-03-01T00:28:45;2.40;;;0.90;;
23628;SDS011;11991;57.150;-2.134;2023-03-01T00:31:14;1.27;;;1.17;;
23628;SDS011;11991;57.150;-2.134;2023-03-01T00:33:43;3.07;;;1.10;;
23628;SDS011;11991;57.150;-2.134;2023-03-01T00:36:12;1.80;;;0.80;;
23628;SDS011;11991;57.150;-2.134;2023-03-01T00:38:42;2.50;;;1.17;;
23628;SDS011;11991;57.150;-2.134;2023-03-01T00:41:13;1.70;;;1.00;;
23628;SDS011;11991;57.150;-2.134;2023-03-01T00:43:42;3.57;;;1.20;;
23628;SDS011;11991;57.150;-2.134;2023-03-01T00:46:11;2.33;;;1.00;;
23628;SDS011;11991;57.150;-2.134;2023-03-01T00:48:42;2.87;;;1.57;;
23628;SDS011;11991;57.150;-2.134;2023-03-01T00:53:36;1.33;;;0.93;;
23628;SDS011;11991;57.150;-2.134;2023-03-01T00:56:04;2.30;;;1.10;;
23628;SDS011;11991;57.150;-2.134;2023-03-01T00:58:33;1.37;;;0.80;;
23628;SDS011;11991;57.150;-2.134;2023-03-01T01:01:01;2.50;;;1.13;;
23628;SDS011;11991;57.150;-2.134;2023-03-01T01:03:47;0.87;;;0.83;;
23628;SDS011;11991;57.150;-2.134;2023-03-01T01:06:16;3.87;;;1.00;;
23628;SDS011;11991;57.150;-2.134;2023-03-01T01:08:52;2.67;;;1.73;;
23628;SDS011;11991;57.150;-2.134;2023-03-01T01:11:21;2.10;;;0.87;;
23628;SDS011;11991;57.150;-2.134;2023-03-01T01:13:50;2.77;;;0.90;;
23628;SDS011;11991;57.150;-2.134;2023-03-01T01:16:18;1.87;;;1.00;;
23628;SDS011;11991;57.150;-2.134;2023-03-01T01:18:48;1.87;;;0.90;;
23628;SDS011;11991;57.150;-2.134;2023-03-01T01:21:16;1.20;;;0.80;;
23628;SDS011;11991;57.150;-2.134;2023-03-01T01:23:45;1.03;;;0.70;;
23628;SDS011;11991;57.150;-2.134;2023-03-01T01:28:51;0.50;;;0.50;;
23628;SDS011;11991;57.150;-2.134;2023-03-01T01:31:19;1.03;;;0.80;;
23628;SDS011;11991;57.150;-2.134;2023-03-01T01:33:50;1.00;;;0.80;;
23628;SDS011;11991;57.150;-2.134;2023-03-01T01:36:18;0.73;;;0.70;;
23628;SDS011;11991;57.150;-2.134;2023-03-01T01:38:45;0.80;;;0.80;;
23628;SDS011;11991;57.150;-2.134;2023-03-01T01:41:12;1.57;;;0.80;;
23628;SDS011;11991;57.150;-2.134;2023-03-01T01:43:45;1.53;;;0.70;;
23628;SDS011;11991;57.150;-2.134;2023-03-01T01:46:36;1.37;;;0.80;;
23628;SDS011;11991;57.150;-2.134;2023-03-01T01:49:17;1.80;;;0.87;;
23628;SDS011;11991;57.150;-2.134;2023-03-01T01:51:53;2.07;;;0.73;;
23628;SDS011;11991;57.150;-2.134;2023-03-01T01:54:51;0.70;;;0.60;;
23628;SDS011;11991;57.150;-2.134;2023-03-01T01:57:44;0.73;;;0.73;;
23628;SDS011;11991;57.150;-2.134;2023-03-01T02:00:15;0.67;;;0.60;;
23628;SDS011;11991;57.150;-2.134;2023-03-01T02:02:46;1.27;;;0.60;;
23628;SDS011;11991;57.150;-2.134;2023-03-01T02:08:10;1.23;;;0.67;;
23628;SDS011;11991;57.150;-2.134;2023-03-01T02:10:39;1.13;;;0.50;;
23628;SDS011;11991;57.150;-2.134;2023-03-01T02:13:09;1.27;;;0.70;;
23628;SDS011;11991;57.150;-2.134;2023-03-01T02:15:37;2.73;;;0.70;;
23628;SDS011;11991;57.150;-2.134;2023-03-01T02:18:06;0.97;;;0.70;;
23628;SDS011;11991;57.150;-2.134;2023-03-01T02:23:06;1.53;;;0.50;;
23628;SDS011;11991;57.150;-2.134;2023-03-01T02:25:36;0.67;;;0.50;;
23628;SDS011;11991;57.150;-2.134;2023-03-01T02:30:42;0.60;;;0.50;;
23628;SDS011;11991;57.150;-2.134;2023-03-01T02:33:31;1.70;;;0.60;;
23628;SDS011;11991;57.150;-2.134;2023-03-01T02:36:00;1.37;;;0.60;;
23628;SDS011;11991;57.150;-2.134;2023-03-01T02:38:31;0.93;;;0.60;;
23628;SDS011;11991;57.150;-2.134;2023-03-01T02:40:58;0.90;;;0.60;;
23628;SDS011;11991;57.150;-2.134;2023-03-01T02:43:29;0.60;;;0.60;;
23628;SDS011;11991;57.150;-2.134;2023-03-01T02:45:59;1.77;;;0.77;;
23628;SDS011;11991;57.150;-2.134;2023-03-01T02:48:39;0.90;;;0.60;;
23628;SDS011;11991;57.150;-2.134;2023-03-01T02:54:36;1.93;;;0.80;;
23628;SDS011;11991;57.150;-2.134;2023-03-01T02:57:29;0.93;;;0.90;;
23628;SDS011;11991;57.150;-2.134;2023-03-01T02:59:59;1.07;;;0.70;;
23628;SDS011;11991;57.150;-2.134;2023-03-01T03:02:35;0.77;;;0.70;;
23628;SDS011;11991;57.150;-2.134;2023-03-01T03:05:23;0.87;;;0.73;;
23628;SDS011;11991;57.150;-2.134;2023-03-01T03:07:55;1.40;;;0.70;;
23628;SDS011;11991;57.150;-2.134;2023-03-01T03:10:26;1.00;;;0.70;;
23628;SDS011;11991;57.150;-2.134;2023-03-01T03:13:00;0.90;;;0.63;;
23628;SDS011;11991;57.150;-2.134;2023-03-01T03:15:33;1.50;;;0.70;;
23628;SDS011;11991;57.150;-2.134;2023-03-01T03:18:03;2.63;;;0.80;;
23628;SDS011;11991;57.150;-2.134;2023-03-01T03:20:33;1.07;;;0.90;;
23628;SDS011;11991;57.150;-2.134;2023-03-01T03:23:01;1.17;;;0.80;;
23628;SDS011;11991;57.150;-2.134;2023-03-01T03:25:28;2.00;;;0.70;;
23628;SDS011;11991;57.150;-2.134;2023-03-01T03:27:56;3.10;;;1.77;;
23628;SDS011;11991;57.150;-2.134;2023-03-01T03:30:25;1.00;;;0.80;;
23628;SDS011;11991;57.150;-2.134;2023-03-01T03:32:55;1.33;;;0.70;;
23628;SDS011;11991;57.150;-2.134;2023-03-01T03:35:24;2.13;;;1.00;;
23628;SDS011;11991;57.150;-2.134;2023-03-01T03:38:00;1.63;;;0.97;;
23628;SDS011;11991;57.150;-2.134;2023-03-01T03:43:00;2.10;;;1.17;;
23628;SDS011;11991;57.150;-2.134;2023-03-01T03:45:29;1.23;;;0.70;;
23628;SDS011;11991;57.150;-2.134;2023-03-01T03:47:56;1.60;;;0.80;;
23628;SDS011;11991;57.150;-2.134;2023-03-01T03:50:23;2.20;;;0.80;;
23628;SDS011;11991;57.150;-2.134;2023-03-01T03:52:50;0.70;;;0.70;;
23628;SDS011;11991;57.150;-2.134;2023-03-01T03:55:17;1.23;;;0.70;;
23628;SDS011;11991;57.150;-2.134;2023-03-01T03:57:46;2.50;;;0.70;;
23628;SDS011;11991;57.150;-2.134;2023-03-01T04:00:19;1.23;;;0.80;;
23628;SDS011;11991;57.150;-2.134;2023-03-01T04:02:47;2.13;;;0.90;;
23628;SDS011;11991;57.150;-2.134;2023-03-01T04:05:16;1.63;;;0.60;;
23628;SDS011;11991;57.150;-2.134;2023-03-01T04:07:44;1.83;;;0.90;;
23628;SDS011;11991;57.150;-2.134;2023-03-01T04:10:13;1.40;;;0.70;;
23628;SDS011;11991;57.150;-2.134;2023-03-01T04:12:41;1.37;;;1.00;;
23628;SDS011;11991;57.150;-2.134;2023-03-01T04:15:12;1.00;;;0.70;;
23628;SDS011;11991;57.150;-2.134;2023-03-01T04:17:40;0.73;;;0.63;;
23628;SDS011;11991;57.150;-2.134;2023-03-01T04:20:09;1.10;;;0.70;;
23628;SDS011;11991;57.150;-2.134;2023-03-01T04:22:38;1.83;;;0.90;;
23628;SDS011;11991;57.150;-2.134;2023-03-01T04:25:06;2.50;;;0.93;;
23628;SDS011;11991;57.150;-2.134;2023-03-01T04:27:34;0.97;;;0.80;;
23628;SDS011;11991;57.150;-2.134;2023-03-01T04:30:03;1.40;;;1.20;;
23628;SDS011;11991;57.150;-2.134;2023-03-01T04:32:30;0.80;;;0.70;;
23628;SDS011;11991;57.150;-2.134;2023-03-01T04:34:58;1.47;;;0.60;;
23628;SDS011;11991;57.150;-2.134;2023-03-01T04:37:26;1.67;;;0.80;;
23628;SDS011;11991;57.150;-2.134;2023-03-01T04:39:53;1.70;;;0.83;;
23628;SDS011;11991;57.150;-2.134;2023-03-01T04:42:20;3.50;;;0.80;;
23628;SDS011;11991;57.150;-2.134;2023-03-01T04:44:47;2.63;;;0.90;;
23628;SDS011;11991;57.150;-2.134;2023-03-01T04:47:17;1.93;;;1.33;;
23628;SDS011;11991;57.150;-2.134;2023-03-01T04:49:44;1.10;;;0.90;;
23628;SDS011;11991;57.150;-2.134;2023-03-01T04:52:12;0.90;;;0.80;;
23628;SDS011;11991;57.150;-2.134;2023-03-01T04:54:39;1.47;;;0.63;;
23628;SDS011;11991;57.150;-2.134;2023-03-01T04:57:06;0.83;;;0.70;;
23628;SDS011;11991;57.150;-2.134;2023-03-01T04:59:33;0.60;;;0.50;;
23628;SDS011;11991;57.150;-2.134;2023-03-01T05:02:02;1.27;;;0.70;;
23628;SDS011;11991;57.150;-2.134;2023-03-01T05:04:30;2.87;;;0.70;;
23628;SDS011;11991;57.150;-2.134;2023-03-01T05:06:57;1.07;;;0.70;;
23628;SDS011;11991;57.150;-2.134;2023-03-01T05:09:25;0.60;;;0.60;;
23628;SDS011;11991;57.150;-2.134;2023-03-01T05:11:52;0.97;;;0.70;;
23628;SDS011;11991;57.150;-2.134;2023-03-01T05:14:19;2.53;;;0.60;;
23628;SDS011;11991;57.150;-2.134;2023-03-01T05:16:46;0.87;;;0.80;;
23628;SDS011;11991;57.150;-2.134;2023-03-01T05:19:13;0.60;;;0.50;;
23628;SDS011;11991;57.150;-2.134;2023-03-01T05:21:49;3.93;;;1.43;;
23628;SDS011;11991;57.150;-2.134;2023-03-01T05:24:29;0.83;;;0.73;;
23628;SDS011;11991;57.150;-2.134;2023-03-01T05:26:58;0.60;;;0.60;;
23628;SDS011;11991;57.150;-2.134;2023-03-01T05:29:26;1.07;;;0.80;;
23628;SDS011;11991;57.150;-2.134;2023-03-01T05:31:58;1.13;;;0.93;;
23628;SDS011;11991;57.150;-2.134;2023-03-01T05:34:27;3.07;;;0.93;;
23628;SDS011;11991;57.150;-2.134;2023-03-01T05:36:56;0.60;;;0.60;;
23628;SDS011;11991;57.150;-2.134;2023-03-01T05:39:25;1.73;;;1.13;;
23628;SDS011;11991;57.150;-2.134;2023-03-01T05:41:54;1.70;;;0.80;;
23628;SDS011;11991;57.150;-2.134;2023-03-01T05:44:24;3.13;;;0.80;;
23628;SDS011;11991;57.150;-2.134;2023-03-01T05:46:52;2.03;;;0.90;;
23628;SDS011;11991;57.150;-2.134;2023-03-01T05:49:19;3.57;;;1.10;;
23628;SDS011;11991;57.150;-2.134;2023-03-01T05:51:48;3.00;;;1.03;;
23628;SDS011;11991;57.150;-2.134;2023-03-01T05:54:17;3.63;;;1.00;;
23628;SDS011;11991;57.150;-2.134;2023-03-01T05:56:45;2.33;;;1.10;;
23628;SDS011;11991;57.150;-2.134;2023-03-01T05:59:13;2.20;;;0.87;;
23628;SDS011;11991;57.150;-2.134;2023-03-01T06:01:43;1.20;;;0.90;;
23628;SDS011;11991;57.150;-2.134;2023-03-01T06:04:10;1.13;;;0.73;;
23628;SDS011;11991;57.150;-2.134;2023-03-01T06:06:37;1.83;;;1.00;;
23628;SDS011;11991;57.150;-2.134;2023-03-01T06:09:05;2.07;;;1.27;;
23628;SDS011;11991;57.150;-2.134;2023-03-01T06:11:35;1.10;;;0.90;;
23628;SDS011;11991;57.150;-2.134;2023-03-01T06:14:03;3.00;;;1.13;;
23628;SDS011;11991;57.150;-2.134;2023-03-01T06:16:32;1.80;;;0.67;;
23628;SDS011;11991;57.150;-2.134;2023-03-01T06:19:00;1.60;;;0.87;;
23628;SDS011;11991;57.150;-2.134;2023-03-01T06:21:27;1.50;;;0.80;;
23628;SDS011;11991;57.150;-2.134;2023-03-01T06:23:54;2.90;;;1.23;;
23628;SDS011;11991;57.150;-2.134;2023-03-01T06:26:21;1.67;;;0.90;;
23628;SDS011;11991;57.150;-2.134;2023-03-01T06:28:48;4.13;;;1.03;;
23628;SDS011;11991;57.150;-2.134;2023-03-01T06:31:15;1.80;;;0.90;;
23628;SDS011;11991;57.150;-2.134;2023-03-01T06:33:44;2.87;;;1.30;;
23628;SDS011;11991;57.150;-2.134;2023-03-01T06:36:11;1.43;;;0.80;;
23628;SDS011;11991;57.150;-2.134;2023-03-01T06:38:38;2.13;;;0.83;;
23628;SDS011;11991;57.150;-2.134;2023-03-01T06:41:07;1.53;;;1.03;;
23628;SDS011;11991;57.150;-2.134;2023-03-01T06:43:34;0.90;;;0.60;;
23628;SDS011;11991;57.150;-2.134;2023-03-01T06:46:05;2.67;;;0.73;;
23628;SDS011;11991;57.150;-2.134;2023-03-01T06:48:33;1.70;;;0.60;;
23628;SDS011;11991;57.150;-2.134;2023-03-01T06:51:01;0.80;;;0.50;;
23628;SDS011;11991;57.150;-2.134;2023-03-01T06:53:28;0.63;;;0.50;;
23628;SDS011;11991;57.150;-2.134;2023-03-01T06:55:56;1.20;;;0.40;;
23628;SDS011;11991;57.150;-2.134;2023-03-01T06:58:25;0.33;;;0.33;;
23628;SDS011;11991;57.150;-2.134;2023-03-01T07:00:53;0.93;;;0.50;;
23628;SDS011;11991;57.150;-2.134;2023-03-01T07:03:20;0.90;;;0.40;;
23628;SDS011;11991;57.150;-2.134;2023-03-01T07:05:50;0.70;;;0.40;;
23628;SDS011;11991;57.150;-2.134;2023-03-01T07:08:19;0.90;;;0.70;;
23628;SDS011;11991;57.150;-2.134;2023-03-01T07:10:46;1.53;;;0.50;;
23628;SDS011;11991;57.150;-2.134;2023-03-01T07:13:14;1.30;;;0.60;;
23628;SDS011;11991;57.150;-2.134;2023-03-01T07:15:42;0.50;;;0.50;;
23628;SDS011;11991;57.150;-2.134;2023-03-01T07:18:09;1.30;;;0.60;;
23628;SDS011;11991;57.150;-2.134;2023-03-01T07:20:36;0.50;;;0.50;;
23628;SDS011;11991;57.150;-2.134;2023-03-01T07:23:05;1.97;;;0.97;;
23628;SDS011;11991;57.150;-2.134;2023-03-01T07:25:32;0.97;;;0.50;;
23628;SDS011;11991;57.150;-2.134;2023-03-01T07:27:59;0.60;;;0.57;;
23628;SDS011;11991;57.150;-2.134;2023-03-01T07:30:27;0.97;;;0.67;;
23628;SDS011;11991;57.150;-2.134;2023-03-01T07:32:55;0.83;;;0.60;;
23628;SDS011;11991;57.150;-2.134;2023-03-01T07:35:24;0.77;;;0.77;;
23628;SDS011;11991;57.150;-2.134;2023-03-01T07:37:53;0.63;;;0.50;;
23628;SDS011;11991;57.150;-2.134;2023-03-01T07:40:20;0.60;;;0.60;;
23628;SDS011;11991;57.150;-2.134;2023-03-01T07:42:47;2.23;;;0.80;;
23628;SDS011;11991;57.150;-2.134;2023-03-01T07:45:14;0.77;;;0.67;;
23628;SDS011;11991;57.150;-2.134;2023-03-01T07:47:42;1.73;;;0.90;;
23628;SDS011;11991;57.150;-2.134;2023-03-01T07:50:09;1.57;;;0.60;;
23628;SDS011;11991;57.150;-2.134;2023-03-01T07:52:37;1.23;;;0.50;;
23628;SDS011;11991;57.150;-2.134;2023-03-01T07:55:04;1.30;;;0.50;;
23628;SDS011;11991;57.150;-2.134;2023-03-01T07:57:32;1.90;;;0.80;;
23628;SDS011;11991;57.150;-2.134;2023-03-01T07:59:59;2.00;;;0.60;;
23628;SDS011;11991;57.150;-2.134;2023-03-01T08:02:26;2.07;;;0.97;;
23628;SDS011;11991;57.150;-2.134;2023-03-01T08:04:53;0.50;;;0.50;;
23628;SDS011;11991;57.150;-2.134;2023-03-01T08:07:20;2.30;;;0.90;;
23628;SDS011;11991;57.150;-2.134;2023-03-01T08:09:47;1.10;;;0.70;;
23628;SDS011;11991;57.150;-2.134;2023-03-01T08:12:15;0.90;;;0.70;;
23628;SDS011;11991;57.150;-2.134;2023-03-01T08:14:45;0.97;;;0.70;;
23628;SDS011;11991;57.150;-2.134;2023-03-01T08:17:15;0.50;;;0.50;;
23628;SDS011;11991;57.150;-2.134;2023-03-01T08:19:42;1.80;;;0.63;;
23628;SDS011;11991;57.150;-2.134;2023-03-01T08:22:09;0.90;;;0.73;;
23628;SDS011;11991;57.150;-2.134;2023-03-01T08:24:37;1.13;;;1.00;;
23628;SDS011;11991;57.150;-2.134;2023-03-01T08:27:04;3.47;;;1.03;;
23628;SDS011;11991;57.150;-2.134;2023-03-01T08:29:32;1.43;;;0.87;;
23628;SDS011;11991;57.150;-2.134;2023-03-01T08:32:00;1.70;;;0.80;;
23628;SDS011;11991;57.150;-2.134;2023-03-01T08:34:27;1.03;;;0.93;;
23628;SDS011;11991;57.150;-2.134;2023-03-01T08:36:54;1.40;;;1.07;;
23628;SDS011;11991;57.150;-2.134;2023-03-01T08:39:21;1.20;;;0.70;;
23628;SDS011;11991;57.150;-2.134;2023-03-01T08:41:49;1.30;;;0.70;;
23628;SDS011;11991;57.150;-2.134;2023-03-01T08:44:16;1.73;;;0.93;;
23628;SDS011;11991;57.150;-2.134;2023-03-01T08:46:44;1.20;;;0.80;;
23628;SDS011;11991;57.150;-2.134;2023-03-01T08:49:17;1.30;;;1.07;;
23628;SDS011;11991;57.150;-2.134;2023-03-01T08:51:46;1.77;;;1.00;;
23628;SDS011;11991;57.150;-2.134;2023-03-01T08:54:18;1.80;;;1.00;;
23628;SDS011;11991;57.150;-2.134;2023-03-01T08:56:47;3.70;;;1.30;;
23628;SDS011;11991;57.150;-2.134;2023-03-01T08:59:15;1.90;;;0.90;;
23628;SDS011;11991;57.150;-2.134;2023-03-01T09:01:43;1.35;;;0.90;;
23628;SDS011;11991;57.150;-2.134;2023-03-01T09:04:11;2.27;;;0.90;;
23628;SDS011;11991;57.150;-2.134;2023-03-01T09:06:39;1.23;;;0.77;;
23628;SDS011;11991;57.150;-2.134;2023-03-01T09:09:06;2.23;;;0.90;;
23628;SDS011;11991;57.150;-2.134;2023-03-01T09:11:39;1.57;;;0.90;;
23628;SDS011;11991;57.150;-2.134;2023-03-01T09:14:06;1.17;;;0.80;;
23628;SDS011;11991;57.150;-2.134;2023-03-01T09:16:33;4.25;;;1.10;;
23628;SDS011;11991;57.150;-2.134;2023-03-01T09:19:02;2.15;;;0.90;;
23628;SDS011;11991;57.150;-2.134;2023-03-01T09:21:30;3.97;;;1.53;;
23628;SDS011;11991;57.150;-2.134;2023-03-01T09:24:08;1.13;;;0.80;;
23628;SDS011;11991;57.150;-2.134;2023-03-01T09:26:40;1.90;;;0.77;;
23628;SDS011;11991;57.150;-2.134;2023-03-01T09:29:08;3.20;;;0.80;;
23628;SDS011;11991;57.150;-2.134;2023-03-01T09:31:36;2.63;;;0.60;;
23628;SDS011;11991;57.150;-2.134;2023-03-01T09:34:03;2.60;;;0.60;;
23628;SDS011;11991;57.150;-2.134;2023-03-01T09:36:31;2.73;;;0.80;;
23628;SDS011;11991;57.150;-2.134;2023-03-01T09:38:59;1.30;;;0.70;;
23628;SDS011;11991;57.150;-2.134;2023-03-01T09:47:22;3.45;;;1.00;;
23628;SDS011;11991;57.150;-2.134;2023-03-01T09:49:57;0.60;;;0.45;;
23628;SDS011;11991;57.150;-2.134;2023-03-01T09:52:46;2.30;;;0.73;;
23628;SDS011;11991;57.150;-2.134;2023-03-01T10:00:56;0.95;;;0.65;;
23628;SDS011;11991;57.150;-2.134;2023-03-01T10:03:44;1.95;;;0.60;;
23628;SDS011;11991;57.150;-2.134;2023-03-01T10:06:31;0.80;;;0.50;;
23628;SDS011;11991;57.150;-2.134;2023-03-01T10:09:05;0.75;;;0.60;;
23628;SDS011;11991;57.150;-2.134;2023-03-01T10:11:41;1.33;;;0.70;;
23628;SDS011;11991;57.150;-2.134;2023-03-01T10:16:46;0.80;;;0.73;;
23628;SDS011;11991;57.150;-2.134;2023-03-01T10:19:27;1.08;;;0.60;;
23628;SDS011;11991;57.150;-2.134;2023-03-01T10:22:15;1.58;;;0.70;;
23628;SDS011;11991;57.150;-2.134;2023-03-01T10:24:48;1.30;;;0.70;;
23628;SDS011;11991;57.150;-2.134;2023-03-01T10:27:24;1.83;;;0.77;;
23628;SDS011;11991;57.150;-2.134;2023-03-01T10:30:03;1.42;;;0.80;;
23628;SDS011;11991;57.150;-2.134;2023-03-01T10:32:51;2.28;;;0.70;;
23628;SDS011;11991;57.150;-2.134;2023-03-01T10:35:24;2.00;;;0.70;;
23628;SDS011;11991;57.150;-2.134;2023-03-01T10:40:29;1.67;;;0.80;;
23628;SDS011;11991;57.150;-2.134;2023-03-01T10:42:57;1.27;;;0.70;;
23628;SDS011;11991;57.150;-2.134;2023-03-01T10:48:21;2.63;;;0.80;;
23628;SDS011;11991;57.150;-2.134;2023-03-01T10:53:27;3.97;;;0.73;;
23628;SDS011;11991;57.150;-2.134;2023-03-01T10:58:32;1.58;;;0.90;;
23628;SDS011;11991;57.150;-2.134;2023-03-01T11:01:03;1.85;;;0.80;;
23628;SDS011;11991;57.150;-2.134;2023-03-01T11:03:33;1.90;;;0.80;;
23628;SDS011;11991;57.150;-2.134;2023-03-01T11:08:44;1.92;;;0.95;;
23628;SDS011;11991;57.150;-2.134;2023-03-01T11:11:14;3.08;;;1.27;;
23628;SDS011;11991;57.150;-2.134;2023-03-01T11:16:24;2.88;;;1.10;;
23628;SDS011;11991;57.150;-2.134;2023-03-01T11:19:13;2.60;;;0.90;;
23628;SDS011;11991;57.150;-2.134;2023-03-01T11:24:50;1.83;;;0.77;;
23628;SDS011;11991;57.150;-2.134;2023-03-01T11:27:43;1.85;;;0.60;;
23628;SDS011;11991;57.150;-2.134;2023-03-01T11:30:23;3.10;;;0.90;;
23628;SDS011;11991;57.150;-2.134;2023-03-01T11:33:20;1.42;;;0.60;;
23628;SDS011;11991;57.150;-2.134;2023-03-01T11:36:01;1.92;;;1.30;;
23628;SDS011;11991;57.150;-2.134;2023-03-01T11:38:34;1.50;;;0.70;;
23628;SDS011;11991;57.150;-2.134;2023-03-01T11:51:55;3.50;;;1.23;;
23628;SDS011;11991;57.150;-2.134;2023-03-01T11:57:18;1.50;;;0.80;;
23628;SDS011;11991;57.150;-2.134;2023-03-01T12:03:25;0.80;;;0.80;;
23628;SDS011;11991;57.150;-2.134;2023-03-01T12:06:19;1.83;;;0.80;;
23628;SDS011;11991;57.150;-2.134;2023-03-01T12:15:26;1.70;;;0.80;;
23628;SDS011;11991;57.150;-2.134;2023-03-01T12:21:10;2.70;;;0.60;;
23628;SDS011;11991;57.150;-2.134;2023-03-01T12:27:38;5.22;;;1.30;;
23628;SDS011;11991;57.150;-2.134;2023-03-01T12:35:37;1.55;;;0.90;;
23628;SDS011;11991;57.150;-2.134;2023-03-01T12:44:01;3.25;;;1.42;;
23628;SDS011;11991;57.150;-2.134;2023-03-01T12:46:41;3.80;;;1.20;;
23628;SDS011;11991;57.150;-2.134;2023-03-01T12:49:28;5.43;;;2.50;;
23628;SDS011;11991;57.150;-2.134;2023-03-01T12:54:37;5.25;;;3.17;;
23628;SDS011;11991;57.150;-2.134;2023-03-01T13:03:00;1.10;;;0.98;;
23628;SDS011;11991;57.150;-2.134;2023-03-01T13:08:28;1.90;;;1.10;;
23628;SDS011;11991;57.150;-2.134;2023-03-01T13:10:58;3.97;;;1.48;;
23628;SDS011;11991;57.150;-2.134;2023-03-01T13:13:28;3.50;;;1.23;;
23628;SDS011;11991;57.150;-2.134;2023-03-01T13:15:56;3.50;;;1.50;;
23628;SDS011;11991;57.150;-2.134;2023-03-01T13:20:52;4.97;;;1.40;;
23628;SDS011;11991;57.150;-2.134;2023-03-01T13:23:27;2.67;;;1.10;;
23628;SDS011;11991;57.150;-2.134;2023-03-01T13:26:06;2.22;;;1.05;;
23628;SDS011;11991;57.150;-2.134;2023-03-01T13:33:48;2.72;;;1.10;;
23628;SDS011;11991;57.150;-2.134;2023-03-01T13:39:03;1.45;;;1.20;;
23628;SDS011;11991;57.150;-2.134;2023-03-01T13:41:54;4.90;;;1.27;;
23628;SDS011;11991;57.150;-2.134;2023-03-01T13:49:42;3.88;;;1.10;;
23628;SDS011;11991;57.150;-2.134;2023-03-01T13:52:23;3.72;;;1.13;;
23628;SDS011;11991;57.150;-2.134;2023-03-01T13:55:01;2.30;;;1.10;;
23628;SDS011;11991;57.150;-2.134;2023-03-01T13:57:33;2.03;;;0.85;;
23628;SDS011;11991;57.150;-2.134;2023-03-01T14:00:03;4.63;;;1.05;;
23628;SDS011;11991;57.150;-2.134;2023-03-01T14:02:32;3.85;;;1.00;;
23628;SDS011;11991;57.150;-2.134;2023-03-01T14:05:00;2.70;;;0.85;;
23628;SDS011;11991;57.150;-2.134;2023-03-01T14:07:28;3.13;;;1.27;;
23628;SDS011;11991;57.150;-2.134;2023-03-01T14:10:01;2.13;;;1.02;;
23628;SDS011;11991;57.150;-2.134;2023-03-01T14:15:13;5.13;;;1.42;;
23628;SDS011;11991;57.150;-2.134;2023-03-01T14:20:38;3.17;;;1.30;;
23628;SDS011;11991;57.150;-2.134;2023-03-01T14:23:10;3.42;;;1.30;;
23628;SDS011;11991;57.150;-2.134;2023-03-01T14:25:45;2.72;;;1.02;;
23628;SDS011;11991;57.150;-2.134;2023-03-01T14:30:48;2.90;;;1.23;;
23628;SDS011;11991;57.150;-2.134;2023-03-01T14:33:22;1.90;;;1.10;;
23628;SDS011;11991;57.150;-2.134;2023-03-01T14:36:07;3.95;;;2.13;;
23628;SDS011;11991;57.150;-2.134;2023-03-01T14:38:41;7.65;;;1.70;;
23628;SDS011;11991;57.150;-2.134;2023-03-01T14:41:12;2.60;;;0.95;;
23628;SDS011;11991;57.150;-2.134;2023-03-01T14:43:53;4.57;;;1.40;;
23628;SDS011;11991;57.150;-2.134;2023-03-01T14:49:09;4.40;;;1.13;;
23628;SDS011;11991;57.150;-2.134;2023-03-01T14:51:41;3.08;;;1.50;;
23628;SDS011;11991;57.150;-2.134;2023-03-01T14:57:20;3.08;;;1.20;;
23628;SDS011;11991;57.150;-2.134;2023-03-01T14:59:52;10.02;;;1.58;;
23628;SDS011;11991;57.150;-2.134;2023-03-01T15:02:22;2.22;;;1.10;;
23628;SDS011;11991;57.150;-2.134;2023-03-01T15:04:52;2.60;;;1.02;;
23628;SDS011;11991;57.150;-2.134;2023-03-01T15:07:33;3.95;;;1.50;;
23628;SDS011;11991;57.150;-2.134;2023-03-01T15:10:04;4.72;;;1.55;;
23628;SDS011;11991;57.150;-2.134;2023-03-01T15:12:39;5.18;;;1.50;;
23628;SDS011;11991;57.150;-2.134;2023-03-01T15:15:19;5.22;;;1.30;;
23628;SDS011;11991;57.150;-2.134;2023-03-01T15:17:48;5.00;;;1.15;;
23628;SDS011;11991;57.150;-2.134;2023-03-01T15:20:23;3.58;;;1.35;;
23628;SDS011;11991;57.150;-2.134;2023-03-01T15:22:55;3.22;;;1.42;;
23628;SDS011;11991;57.150;-2.134;2023-03-01T15:25:25;8.52;;;2.03;;
23628;SDS011;11991;57.150;-2.134;2023-03-01T15:27:54;3.33;;;1.58;;
23628;SDS011;11991;57.150;-2.134;2023-03-01T15:30:25;4.80;;;1.50;;
23628;SDS011;11991;57.150;-2.134;2023-03-01T15:35:59;5.65;;;1.85;;
23628;SDS011;11991;57.150;-2.134;2023-03-01T15:38:29;3.75;;;1.27;;
23628;SDS011;11991;57.150;-2.134;2023-03-01T15:40:58;2.55;;;1.42;;
23628;SDS011;11991;57.150;-2.134;2023-03-01T15:43:43;5.68;;;1.58;;
23628;SDS011;11991;57.150;-2.134;2023-03-01T15:46:23;4.03;;;1.38;;
23628;SDS011;11991;57.150;-2.134;2023-03-01T15:48:57;4.68;;;1.90;;
23628;SDS011;11991;57.150;-2.134;2023-03-01T15:51:28;4.43;;;1.60;;
23628;SDS011;11991;57.150;-2.134;2023-03-01T15:53:59;3.85;;;1.50;;
23628;SDS011;11991;57.150;-2.134;2023-03-01T15:56:29;2.78;;;1.27;;
23628;SDS011;11991;57.150;-2.134;2023-03-01T15:58:58;3.53;;;0.88;;
23628;SDS011;11991;57.150;-2.134;2023-03-01T16:01:26;2.00;;;1.10;;
23628;SDS011;11991;57.150;-2.134;2023-03-01T16:03:54;3.17;;;1.08;;
23628;SDS011;11991;57.150;-2.134;2023-03-01T16:06:23;2.85;;;1.00;;
23628;SDS011;11991;57.150;-2.134;2023-03-01T16:08:50;3.08;;;1.60;;
23628;SDS011;11991;57.150;-2.134;2023-03-01T16:11:18;2.42;;;1.10;;
23628;SDS011;11991;57.150;-2.134;2023-03-01T16:13:47;1.50;;;0.73;;
23628;SDS011;11991;57.150;-2.134;2023-03-01T16:16:15;2.63;;;1.15;;
23628;SDS011;11991;57.150;-2.134;2023-03-01T16:18:43;0.93;;;0.50;;
23628;SDS011;11991;57.150;-2.134;2023-03-01T16:21:20;0.90;;;0.60;;
23628;SDS011;11991;57.150;-2.134;2023-03-01T16:23:51;0.85;;;0.60;;
23628;SDS011;11991;57.150;-2.134;2023-03-01T16:26:19;3.25;;;1.70;;
23628;SDS011;11991;57.150;-2.134;2023-03-01T16:28:47;2.72;;;2.17;;
23628;SDS011;11991;57.150;-2.134;2023-03-01T16:31:16;3.00;;;1.60;;
23628;SDS011;11991;57.150;-2.134;2023-03-01T16:33:48;1.45;;;1.17;;
23628;SDS011;11991;57.150;-2.134;2023-03-01T16:36:19;4.95;;;3.50;;
23628;SDS011;11991;57.150;-2.134;2023-03-01T16:38:51;6.30;;;3.70;;
23628;SDS011;11991;57.150;-2.134;2023-03-01T16:41:19;4.72;;;3.00;;
23628;SDS011;11991;57.150;-2.134;2023-03-01T16:43:48;3.35;;;1.35;;
23628;SDS011;11991;57.150;-2.134;2023-03-01T16:46:16;4.05;;;1.50;;
23628;SDS011;11991;57.150;-2.134;2023-03-01T16:48:46;3.55;;;1.50;;
23628;SDS011;11991;57.150;-2.134;2023-03-01T16:51:13;2.42;;;1.50;;
23628;SDS011;11991;57.150;-2.134;2023-03-01T16:53:41;3.97;;;1.13;;
23628;SDS011;11991;57.150;-2.134;2023-03-01T16:56:11;5.40;;;2.22;;
23628;SDS011;11991;57.150;-2.134;2023-03-01T16:58:40;3.42;;;1.77;;
23628;SDS011;11991;57.150;-2.134;2023-03-01T17:01:09;3.35;;;1.35;;
23628;SDS011;11991;57.150;-2.134;2023-03-01T17:03:38;4.22;;;1.35;;
23628;SDS011;11991;57.150;-2.134;2023-03-01T17:06:08;2.47;;;1.63;;
23628;SDS011;11991;57.150;-2.134;2023-03-01T17:08:37;2.60;;;1.50;;
23628;SDS011;11991;57.150;-2.134;2023-03-01T17:11:09;6.97;;;2.25;;
23628;SDS011;11991;57.150;-2.134;2023-03-01T17:13:38;4.63;;;1.92;;
23628;SDS011;11991;57.150;-2.134;2023-03-01T17:16:07;5.28;;;1.48;;